Time;durP1;ratioP1;P1;durP2;ratioP2;P2;SDS_P1;SDS_P2;PMS_P1;PMS_P2;Temp;Humidity;BMP_temperature;BMP_pressure;BME280_temperature;BME280_humidity;BME280_pressure;Samples;Min_cycle;Max_cycle;Signal;HPM_P1;HPM_P2
2022/10/12 00:00:33;;;;;;;4.18;1.92;;;12.90;93.30;;;;;;10435152;28;20052;-61
2022/10/12 00:05:33;;;;;;;2.67;1.90;;;12.90;93.30;;;;;;10437875;28;20191;-61
2022/10/12 00:10:39;;;;;;;3.95;2.00;;;12.90;93.30;;;;;;10436160;28;20487;-62
2022/10/12 00:15:40;;;;;;;3.45;2.00;;;12.90;93.30;;;;;;10437737;28;20078;-61
2022/10/12 00:20:41;;;;;;;5.05;2.00;;;12.90;93.30;;;;;;10437128;28;20539;-62
2022/10/12 00:25:42;;;;;;;4.05;2.05;;;12.80;93.30;;;;;;10418905;28;20052;-61
2022/10/12 00:30:42;;;;;;;2.78;2.17;;;12.80;93.30;;;;;;10437112;28;20528;-61
2022/10/12 00:35:43;;;;;;;5.32;2.00;;;12.80;93.30;;;;;;10436646;28;20124;-61
2022/10/12 00:40:43;;;;;;;2.83;2.03;;;12.80;93.30;;;;;;10435491;28;20025;-61
2022/10/12 00:45:44;;;;;;;3.28;1.67;;;12.80;93.30;;;;;;10418646;28;20086;-61
2022/10/12 00:50:45;;;;;;;6.47;2.40;;;12.80;93.30;;;;;;10438507;28;20033;-63
2022/10/12 00:55:48;;;;;;;3.42;1.73;;;12.80;93.30;;;;;;10443255;28;20021;-63
2022/10/12 01:00:50;;;;;;;3.67;2.03;;;12.80;93.30;;;;;;10442350;28;20243;-62
2022/10/12 01:05:51;;;;;;;5.75;2.10;;;12.70;93.30;;;;;;10442999;28;20432;-61
2022/10/12 01:10:51;;;;;;;3.95;2.70;;;12.70;93.30;;;;;;10441732;28;20044;-61
2022/10/12 01:16:03;;;;;;;4.38;2.40;;;12.70;93.40;;;;;;10443379;28;20120;-61
2022/10/12 01:21:18;;;;;;;3.05;1.88;;;12.70;93.60;;;;;;10443071;28;20029;-63
2022/10/12 01:26:22;;;;;;;2.40;1.65;;;12.70;93.40;;;;;;10442413;28;20056;-61
2022/10/12 01:31:39;;;;;;;3.75;2.15;;;12.70;93.40;;;;;;10443884;28;20036;-61
2022/10/12 01:36:44;;;;;;;3.08;2.33;;;12.70;93.40;;;;;;10442259;28;20017;-62
2022/10/12 01:41:54;;;;;;;4.22;2.30;;;12.70;93.40;;;;;;10440672;28;20025;-62
2022/10/12 01:46:56;;;;;;;4.55;2.30;;;12.60;93.30;;;;;;10441619;28;20032;-66
2022/10/12 01:52:20;;;;;;;3.83;2.47;;;12.60;93.30;;;;;;10442273;28;20017;-61
2022/10/12 01:57:49;;;;;;;3.78;2.15;;;12.60;93.30;;;;;;10442046;28;20055;-65
2022/10/12 02:03:09;;;;;;;3.50;2.15;;;12.60;93.30;;;;;;10440778;28;20053;-62
2022/10/12 02:08:32;;;;;;;4.22;2.45;;;12.60;93.30;;;;;;10441551;28;20150;-61
2022/10/12 02:13:37;;;;;;;4.03;2.35;;;12.60;93.40;;;;;;10423912;28;20563;-62
2022/10/12 02:18:45;;;;;;;2.97;1.95;;;12.60;93.30;;;;;;10439869;28;20477;-62
2022/10/12 02:23:48;;;;;;;4.32;2.20;;;12.60;93.30;;;;;;10441357;28;20021;-62
2022/10/12 02:28:49;;;;;;;3.30;2.35;;;12.70;93.40;;;;;;10441529;28;20067;-61
2022/10/12 02:33:56;;;;;;;4.03;2.65;;;12.60;93.40;;;;;;10440251;28;20369;-61
2022/10/12 02:39:12;;;;;;;5.63;2.90;;;12.60;93.40;;;;;;10438822;28;20032;-61
2022/10/12 02:44:18;;;;;;;3.60;2.33;;;12.60;93.40;;;;;;10439384;28;20045;-62
2022/10/12 02:49:24;;;;;;;3.13;2.28;;;12.60;93.40;;;;;;10436998;28;20044;-61
2022/10/12 02:54:24;;;;;;;5.03;2.33;;;12.80;93.50;;;;;;10421602;28;20489;-61
2022/10/12 02:59:25;;;;;;;6.57;2.70;;;12.60;93.40;;;;;;10439864;28;20049;-61
2022/10/12 03:04:26;;;;;;;4.88;2.45;;;12.60;93.40;;;;;;10440236;28;20125;-61
2022/10/12 03:09:27;;;;;;;4.25;2.45;;;12.50;93.40;;;;;;10439773;28;20045;-61
2022/10/12 03:14:27;;;;;;;4.25;2.65;;;12.50;93.40;;;;;;10439460;28;20021;-61
2022/10/12 03:19:28;;;;;;;3.90;2.97;;;12.50;93.70;;;;;;10439564;28;20587;-61
2022/10/12 03:24:29;;;;;;;6.15;2.85;;;12.50;93.40;;;;;;10439398;28;20048;-61
2022/10/12 03:29:30;;;;;;;4.00;2.55;;;12.50;93.40;;;;;;10439825;28;20037;-61
2022/10/12 03:34:30;;;;;;;5.13;2.55;;;12.50;93.40;;;;;;10421331;28;20024;-61
2022/10/12 03:39:31;;;;;;;4.72;2.35;;;12.50;93.40;;;;;;10439022;28;20021;-61
2022/10/12 03:44:31;;;;;;;5.03;2.70;;;12.40;93.40;;;;;;10436976;28;20030;-61
2022/10/12 03:49:32;;;;;;;6.18;2.60;;;12.40;93.40;;;;;;10439131;28;20039;-61
2022/10/12 03:54:33;;;;;;;4.97;2.70;;;12.40;93.40;;;;;;10436569;28;20025;-64
2022/10/12 03:59:34;;;;;;;6.55;2.70;;;12.40;93.40;;;;;;10438315;28;20053;-63
2022/10/12 04:04:34;;;;;;;4.05;2.50;;;12.40;93.40;;;;;;10439120;28;20373;-61
2022/10/12 04:09:35;;;;;;;8.00;2.72;;;12.40;93.40;;;;;;10438006;28;20078;-61
2022/10/12 04:14:36;;;;;;;4.53;2.58;;;12.40;93.40;;;;;;10438624;28;20032;-61
2022/10/12 04:19:37;;;;;;;5.72;2.90;;;12.30;93.40;;;;;;10438514;28;20520;-63
2022/10/12 04:24:37;;;;;;;4.78;2.97;;;12.30;93.40;;;;;;10439696;28;20021;-63
2022/10/12 04:29:38;;;;;;;5.80;3.15;;;12.30;93.40;;;;;;10446056;28;20033;-62
2022/10/12 04:34:39;;;;;;;4.32;2.28;;;12.30;93.40;;;;;;10444373;28;20036;-61
2022/10/12 04:39:40;;;;;;;5.38;2.55;;;12.30;93.40;;;;;;10445243;28;20426;-61
2022/10/12 04:44:40;;;;;;;5.93;2.63;;;12.30;93.40;;;;;;10444684;28;20025;-66
2022/10/12 04:49:41;;;;;;;5.65;2.72;;;12.30;93.40;;;;;;10440783;28;20075;-61
2022/10/12 04:54:42;;;;;;;4.88;2.50;;;12.20;93.40;;;;;;10445323;28;20098;-61
2022/10/12 04:59:42;;;;;;;3.95;2.47;;;12.20;93.30;;;;;;10444609;28;20402;-64
2022/10/12 05:04:43;;;;;;;4.45;2.60;;;12.30;93.40;;;;;;10444613;28;20503;-61
2022/10/12 05:09:44;;;;;;;5.30;2.72;;;12.20;93.30;;;;;;10442156;28;20041;-67
2022/10/12 05:14:44;;;;;;;5.75;3.05;;;12.20;93.30;;;;;;10444844;28;20017;-61
2022/10/12 05:19:45;;;;;;;4.45;2.42;;;12.20;93.30;;;;;;10443945;28;20048;-61
2022/10/12 05:24:46;;;;;;;4.70;2.60;;;12.20;93.30;;;;;;10444095;28;20025;-62
2022/10/12 05:29:47;;;;;;;5.00;2.42;;;12.20;93.30;;;;;;10443354;28;20044;-62
2022/10/12 05:34:47;;;;;;;2.88;2.45;;;12.20;93.30;;;;;;10442195;28;20052;-61
2022/10/12 05:39:51;;;;;;;5.38;2.72;;;12.10;93.20;;;;;;10443527;28;20369;-61
2022/10/12 05:44:52;;;;;;;6.20;2.50;;;12.10;93.30;;;;;;10443606;28;20485;-61
2022/10/12 05:49:52;;;;;;;5.75;2.40;;;12.10;93.30;;;;;;10441233;28;20083;-67
2022/10/12 05:54:53;;;;;;;7.13;2.63;;;12.10;93.30;;;;;;10438774;28;20429;-61
2022/10/12 05:59:54;;;;;;;5.00;2.58;;;12.10;93.30;;;;;;10441623;28;20049;-63
2022/10/12 06:04:54;;;;;;;3.65;1.95;;;12.10;93.30;;;;;;10442168;28;20549;-61
2022/10/12 06:09:55;;;;;;;3.20;2.20;;;12.00;93.20;;;;;;10441070;28;20037;-61
2022/10/12 06:14:56;;;;;;;4.20;2.40;;;12.00;93.20;;;;;;10441057;28;20051;-61
2022/10/12 06:19:57;;;;;;;3.63;2.47;;;12.00;93.20;;;;;;10441598;28;20033;-61
2022/10/12 06:25:00;;;;;;;3.80;2.30;;;12.00;93.20;;;;;;10428424;28;20044;-61
2022/10/12 06:30:01;;;;;;;5.00;2.63;;;12.00;93.20;;;;;;10392854;22;20049;-61
2022/10/12 06:35:01;;;;;;;4.38;2.70;;;12.30;93.40;;;;;;10387918;28;20164;-62
2022/10/12 06:40:04;;;;;;;6.35;2.55;;;12.00;93.20;;;;;;10393169;28;20052;-61
2022/10/12 06:45:05;;;;;;;7.47;2.65;;;12.00;93.20;;;;;;10395029;28;20571;-62
2022/10/12 06:50:07;;;;;;;6.53;2.53;;;12.00;93.10;;;;;;10397057;28;20123;-63
2022/10/12 06:55:09;;;;;;;5.78;2.50;;;12.00;93.10;;;;;;10391740;28;20033;-61
2022/10/12 07:00:11;;;;;;;4.60;2.83;;;12.00;93.00;;;;;;10380881;28;20090;-61
2022/10/12 07:05:11;;;;;;;6.97;3.10;;;12.00;93.00;;;;;;10396215;28;20048;-60
2022/10/12 07:10:12;;;;;;;8.32;2.70;;;12.00;93.00;;;;;;10396969;28;20095;-61
2022/10/12 07:15:13;;;;;;;4.43;2.88;;;12.10;93.00;;;;;;10397519;28;20127;-60
2022/10/12 07:20:14;;;;;;;4.90;2.70;;;12.10;92.90;;;;;;10389220;28;20408;-60
2022/10/12 07:25:15;;;;;;;4.28;3.10;;;12.10;92.90;;;;;;10386540;28;20069;-60
2022/10/12 07:30:15;;;;;;;4.13;2.75;;;11.60;92.80;;;;;;10391281;28;20040;-62
2022/10/12 07:35:16;;;;;;;5.15;2.75;;;12.00;92.90;;;;;;10373012;28;20205;-60
2022/10/12 07:40:17;;;;;;;4.82;3.15;;;12.00;93.00;;;;;;10395896;28;20346;-68
2022/10/12 07:45:18;;;;;;;6.32;3.22;;;12.10;93.00;;;;;;10394397;28;20037;-61
2022/10/12 07:50:18;;;;;;;5.50;3.05;;;12.00;93.30;;;;;;10396877;28;20056;-60
2022/10/12 07:55:19;;;;;;;5.10;3.10;;;12.00;93.00;;;;;;10389036;28;20395;-61
2022/10/12 08:00:21;;;;;;;5.32;3.00;;;12.00;93.00;;;;;;10381631;28;20039;-61
2022/10/12 08:05:22;;;;;;;6.82;3.70;;;12.10;93.00;;;;;;10405982;28;20044;-60
2022/10/12 08:10:22;;;;;;;8.88;4.05;;;12.00;93.00;;;;;;10401283;28;20548;-60
2022/10/12 08:15:23;;;;;;;5.88;3.22;;;12.10;93.00;;;;;;10401103;28;20155;-61
2022/10/12 08:20:24;;;;;;;6.55;3.13;;;12.10;93.00;;;;;;10386802;28;20645;-62
2022/10/12 08:25:25;;;;;;;6.85;3.75;;;12.20;93.40;;;;;;10397245;22;20053;-64
2022/10/12 08:30:26;;;;;;;7.13;3.67;;;12.30;93.20;;;;;;10330317;28;20037;-61
2022/10/12 08:35:27;;;;;;;7.05;3.15;;;12.40;93.10;;;;;;10325828;22;20669;-61
2022/10/12 08:40:32;;;;;;;8.02;3.38;;;12.30;93.00;;;;;;10308803;28;20030;-67
2022/10/12 08:45:52;;;;;;;6.78;3.08;;;12.50;93.00;;;;;;10304681;28;20164;-60
2022/10/12 08:51:00;;;;;;;5.63;2.88;;;12.60;92.90;;;;;;10314973;28;20500;-60
2022/10/12 08:56:01;;;;;;;6.77;3.13;;;12.70;92.90;;;;;;10303085;28;20171;-64
2022/10/12 09:01:27;;;;;;;6.95;2.97;;;12.70;92.80;;;;;;10301453;28;20041;-60
2022/10/12 09:06:38;;;;;;;5.03;2.85;;;12.70;92.80;;;;;;10306214;28;20690;-61
2022/10/12 09:12:24;;;;;;;5.45;2.78;;;12.80;92.80;;;;;;10295815;28;20111;-60
2022/10/12 09:17:27;;;;;;;6.70;2.78;;;12.80;92.70;;;;;;10288534;28;20045;-61
2022/10/12 09:22:30;;;;;;;7.30;2.60;;;12.90;92.70;;;;;;10306022;28;20333;-62
2022/10/12 09:27:31;;;;;;;6.60;3.30;;;13.00;92.60;;;;;;10305605;28;20781;-60
2022/10/12 09:33:06;;;;;;;10.10;4.32;;;13.00;92.70;;;;;;10300106;28;20294;-60
2022/10/12 09:38:08;;;;;;;10.75;4.40;;;13.00;93.10;;;;;;10292955;28;20103;-66
2022/10/12 09:43:09;;;;;;;8.38;4.82;;;12.90;93.10;;;;;;10293722;28;20111;-61
2022/10/12 09:48:23;;;;;;;9.38;4.53;;;12.80;93.10;;;;;;10293649;28;20034;-61
2022/10/12 09:53:40;;;;;;;7.57;4.18;;;12.80;93.20;;;;;;10288553;28;20315;-60
2022/10/12 09:58:58;;;;;;;8.38;4.25;;;12.70;93.10;;;;;;10288845;28;20531;-61
2022/10/12 10:04:09;;;;;;;9.23;3.65;;;12.70;93.10;;;;;;10287479;28;20474;-60
2022/10/12 10:09:32;;;;;;;8.27;4.28;;;12.70;93.10;;;;;;10291372;28;20050;-60
2022/10/12 10:14:34;;;;;;;8.30;3.55;;;12.70;93.00;;;;;;10287870;28;20280;-60
2022/10/12 10:19:36;;;;;;;6.55;3.30;;;12.80;93.00;;;;;;10295855;28;20462;-60
2022/10/12 10:24:37;;;;;;;7.93;3.30;;;12.90;92.80;;;;;;10289812;28;20025;-61
2022/10/12 10:29:41;;;;;;;12.05;3.55;;;12.90;92.70;;;;;;10286954;28;20165;-60
2022/10/12 10:34:42;;;;;;;9.77;3.88;;;13.00;92.60;;;;;;10287377;28;20050;-65
2022/10/12 10:39:50;;;;;;;7.95;3.15;;;13.00;92.40;;;;;;10291982;28;20421;-60
2022/10/12 10:45:08;;;;;;;12.33;4.83;;;13.00;92.50;;;;;;10287358;28;20026;-60
2022/10/12 10:50:28;;;;;;;9.20;3.42;;;13.10;92.20;;;;;;10288575;28;20045;-60
2022/10/12 10:56:07;;;;;;;6.57;3.17;;;13.20;92.40;;;;;;10290297;28;20464;-60
2022/10/12 11:01:28;;;;;;;8.10;3.40;;;13.20;92.40;;;;;;10281408;28;20045;-65
2022/10/12 11:06:58;;;;;;;6.72;3.10;;;13.30;92.40;;;;;;10285741;28;20041;-62
2022/10/12 11:12:06;;;;;;;7.07;3.20;;;13.40;92.30;;;;;;10288949;28;20025;-69
2022/10/12 11:17:17;;;;;;;14.45;3.90;;;13.40;92.10;;;;;;10292945;28;20052;-60
2022/10/12 11:22:28;;;;;;;8.57;3.28;;;13.50;92.10;;;;;;10289803;28;20395;-61
2022/10/12 11:27:39;;;;;;;11.05;2.90;;;13.60;91.90;;;;;;10296407;28;20037;-62
2022/10/12 11:32:41;;;;;;;8.35;3.15;;;13.70;91.80;;;;;;10287507;28;20720;-61
2022/10/12 11:38:00;;;;;;;8.57;2.78;;;13.80;91.60;;;;;;10293482;28;20443;-61
2022/10/12 11:43:05;;;;;;;6.43;2.70;;;13.90;91.30;;;;;;10288294;28;20735;-60
2022/10/12 11:48:12;;;;;;;5.63;2.40;;;14.00;91.10;;;;;;10294203;28;20104;-60
2022/10/12 11:53:42;;;;;;;10.27;3.30;;;14.00;91.10;;;;;;10286323;28;20586;-60
2022/10/12 11:58:45;;;;;;;10.43;2.97;;;14.10;90.90;;;;;;10294190;28;20030;-61
2022/10/12 12:04:22;;;;;;;7.18;3.22;;;14.20;91.10;;;;;;10302706;28;20577;-63
2022/10/12 12:09:38;;;;;;;11.68;3.60;;;14.30;90.90;;;;;;10296269;28;20470;-60
2022/10/12 12:14:54;;;;;;;11.95;3.47;;;14.30;91.10;;;;;;10305286;28;20033;-60
2022/10/12 12:20:22;;;;;;;9.55;3.92;;;14.40;91.00;;;;;;10299736;28;20065;-62
2022/10/12 12:25:29;;;;;;;13.75;3.75;;;14.40;91.00;;;;;;10294920;28;20517;-64
2022/10/12 12:30:38;;;;;;;8.20;3.75;;;14.50;91.10;;;;;;10293899;28;20074;-62
2022/10/12 12:36:01;;;;;;;9.93;3.97;;;14.50;91.10;;;;;;10298476;28;20760;-61
2022/10/12 12:41:05;;;;;;;12.52;4.25;;;14.50;91.00;;;;;;10296996;28;20830;-60
2022/10/12 12:46:11;;;;;;;14.27;5.40;;;14.60;91.00;;;;;;10296728;28;20062;-61
2022/10/12 12:51:34;;;;;;;13.48;4.75;;;14.60;90.70;;;;;;10307118;28;20056;-60
2022/10/12 12:57:08;;;;;;;7.60;5.03;;;14.70;90.60;;;;;;10308731;28;20068;-63
2022/10/12 13:02:33;;;;;;;11.30;4.68;;;14.70;90.60;;;;;;10305164;28;20373;-61
2022/10/12 13:07:58;;;;;;;12.70;4.97;;;14.70;90.70;;;;;;10306693;28;20342;-63
2022/10/12 13:13:25;;;;;;;11.32;5.35;;;14.80;90.70;;;;;;10307561;28;20142;-62
2022/10/12 13:18:57;;;;;;;9.55;4.10;;;14.90;90.60;;;;;;10304074;28;20290;-61
2022/10/12 13:24:04;;;;;;;21.65;5.55;;;15.00;90.70;;;;;;10295326;28;20064;-61
2022/10/12 13:29:16;;;;;;;13.70;4.75;;;15.10;90.50;;;;;;10299272;28;20092;-60
2022/10/12 13:34:26;;;;;;;15.15;5.05;;;15.00;90.50;;;;;;10288277;28;20046;-60
2022/10/12 13:39:28;;;;;;;11.88;4.97;;;14.90;90.80;;;;;;10294880;28;20065;-60
2022/10/12 13:44:33;;;;;;;8.68;4.43;;;14.80;90.80;;;;;;10300135;28;20032;-64
2022/10/12 13:49:41;;;;;;;8.88;3.92;;;14.80;90.70;;;;;;10290482;28;20045;-63
2022/10/12 13:54:47;;;;;;;13.55;4.60;;;14.80;90.50;;;;;;10303922;28;20453;-61
2022/10/12 14:00:01;;;;;;;13.60;4.53;;;14.70;90.60;;;;;;10302840;28;20045;-63
2022/10/12 14:05:05;;;;;;;14.75;4.80;;;14.70;90.70;;;;;;10300313;28;20033;-63
2022/10/12 14:10:27;;;;;;;13.45;4.25;;;14.70;90.90;;;;;;10299037;28;20279;-66
2022/10/12 14:15:33;;;;;;;13.30;4.60;;;14.80;90.90;;;;;;10290620;28;20500;-60
2022/10/12 14:20:37;;;;;;;10.23;4.05;;;14.90;91.00;;;;;;10301375;28;20953;-60
2022/10/12 14:25:49;;;;;;;10.63;3.58;;;14.90;91.00;;;;;;10317250;23;20541;-61
2022/10/12 14:30:53;;;;;;;7.30;3.33;;;14.80;91.10;;;;;;10316423;28;20605;-68
2022/10/12 14:36:23;;;;;;;9.95;3.88;;;14.70;91.20;;;;;;10316522;28;20061;-60
2022/10/12 14:41:49;;;;;;;8.00;3.72;;;14.80;90.90;;;;;;10314042;28;20039;-60
2022/10/12 14:46:54;;;;;;;5.15;3.10;;;15.00;90.90;;;;;;10324348;28;20049;-60
2022/10/12 14:51:54;;;;;;;7.38;3.10;;;15.00;90.90;;;;;;10312998;28;20427;-61
2022/10/12 14:57:00;;;;;;;5.68;2.72;;;15.10;90.80;;;;;;10321285;28;20040;-60
2022/10/12 15:02:01;;;;;;;9.98;2.72;;;14.90;90.80;;;;;;10315698;28;20029;-62
2022/10/12 15:07:11;;;;;;;10.05;3.60;;;14.80;91.00;;;;;;10321429;28;20037;-61
2022/10/12 15:12:14;;;;;;;11.93;3.67;;;14.60;91.20;;;;;;10320204;28;20048;-59
2022/10/12 15:17:17;;;;;;;10.77;3.78;;;14.50;91.40;;;;;;10318491;28;20061;-60
2022/10/12 15:22:25;;;;;;;12.30;3.60;;;14.50;91.50;;;;;;10312839;28;20753;-61
2022/10/12 15:27:25;;;;;;;8.05;3.30;;;14.40;91.60;;;;;;10315348;28;20461;-59
2022/10/12 15:32:26;;;;;;;12.02;3.50;;;14.30;91.90;;;;;;10312976;28;20025;-62
2022/10/12 15:37:30;;;;;;;8.13;3.70;;;14.20;91.70;;;;;;10306779;28;20924;-60
2022/10/12 15:42:30;;;;;;;11.52;4.82;;;14.20;91.90;;;;;;10311307;28;20025;-67
2022/10/12 15:47:31;;;;;;;10.20;3.78;;;14.20;92.00;;;;;;10318674;28;20045;-70
2022/10/12 15:52:32;;;;;;;10.93;4.38;;;14.20;92.00;;;;;;10321086;28;20435;-60
2022/10/12 15:57:33;;;;;;;23.33;5.18;;;14.20;92.20;;;;;;10320028;28;20568;-59
2022/10/12 16:02:34;;;;;;;28.52;5.47;;;14.20;92.30;;;;;;10310580;28;20995;-61
2022/10/12 16:07:34;;;;;;;15.77;4.25;;;14.20;92.30;;;;;;10312881;28;20282;-60
2022/10/12 16:12:35;;;;;;;21.40;5.45;;;14.30;92.30;;;;;;10310828;28;20140;-59
2022/10/12 16:17:36;;;;;;;12.27;3.95;;;14.30;92.30;;;;;;10308856;28;20119;-59
2022/10/12 16:22:37;;;;;;;13.95;4.20;;;14.40;92.40;;;;;;10314789;28;20826;-60
2022/10/12 16:27:38;;;;;;;10.65;3.50;;;14.40;92.40;;;;;;10319013;28;20555;-59
2022/10/12 16:32:39;;;;;;;16.38;3.72;;;14.40;92.40;;;;;;10320113;28;20119;-60
2022/10/12 16:37:40;;;;;;;12.65;4.53;;;14.40;92.40;;;;;;10318540;28;20254;-59
2022/10/12 16:42:40;;;;;;;10.18;4.10;;;14.40;92.70;;;;;;10318745;28;20032;-59
2022/10/12 16:47:41;;;;;;;10.95;4.32;;;14.40;92.70;;;;;;10317281;28;20367;-61
2022/10/12 16:52:42;;;;;;;10.18;3.80;;;14.40;92.80;;;;;;10321605;28;20175;-59
2022/10/12 16:57:43;;;;;;;12.27;3.80;;;14.30;92.80;;;;;;10309424;28;20876;-60
2022/10/12 17:02:45;;;;;;;7.20;3.30;;;14.30;92.80;;;;;;10316011;28;20440;-60
2022/10/12 17:07:46;;;;;;;8.45;3.20;;;14.30;92.80;;;;;;10310339;28;20038;-60
2022/10/12 17:12:46;;;;;;;9.57;3.25;;;14.30;92.80;;;;;;10355918;28;20033;-60
2022/10/12 17:17:47;;;;;;;12.10;4.10;;;14.40;92.90;;;;;;10402161;28;20112;-64
2022/10/12 17:22:48;;;;;;;8.48;3.60;;;14.40;92.90;;;;;;10400511;28;20043;-60
2022/10/12 17:27:49;;;;;;;9.50;3.67;;;14.30;92.90;;;;;;10396618;28;20033;-60
2022/10/12 17:32:49;;;;;;;11.88;3.83;;;14.30;92.90;;;;;;10400815;28;20037;-60
2022/10/12 17:37:50;;;;;;;8.88;3.28;;;14.30;93.00;;;;;;10399446;28;20026;-66
2022/10/12 17:42:51;;;;;;;10.52;3.67;;;14.30;93.00;;;;;;10395311;28;20095;-60
2022/10/12 17:47:51;;;;;;;9.88;3.67;;;14.30;93.00;;;;;;10394235;28;20120;-59
2022/10/12 17:52:52;;;;;;;8.80;3.33;;;14.30;93.00;;;;;;10396394;28;20030;-69
2022/10/12 17:57:53;;;;;;;9.15;3.20;;;14.20;93.00;;;;;;10400713;28;20702;-60
2022/10/12 18:02:54;;;;;;;8.40;3.40;;;14.30;93.00;;;;;;10394792;28;20121;-59
2022/10/12 18:07:54;;;;;;;6.03;3.08;;;14.30;93.00;;;;;;10397047;28;20057;-59
2022/10/12 18:12:55;;;;;;;6.53;3.40;;;14.20;93.00;;;;;;10399541;28;20033;-59
2022/10/12 18:17:56;;;;;;;9.55;3.40;;;14.20;93.00;;;;;;10395339;28;20029;-60
2022/10/12 18:22:57;;;;;;;8.77;3.50;;;14.20;93.00;;;;;;10398284;28;20029;-60
2022/10/12 18:27:58;;;;;;;10.65;4.18;;;14.20;93.00;;;;;;10395375;28;20552;-59
2022/10/12 18:32:59;;;;;;;8.43;3.92;;;14.20;93.00;;;;;;10400942;28;20140;-59
2022/10/12 18:38:00;;;;;;;9.07;3.28;;;14.20;93.00;;;;;;10395066;28;20465;-59
2022/10/12 18:43:01;;;;;;;7.47;3.60;;;14.20;93.00;;;;;;10391904;28;20121;-60
2022/10/12 18:48:05;;;;;;;8.55;3.53;;;14.10;93.00;;;;;;10399332;28;20486;-59
2022/10/12 18:53:06;;;;;;;6.03;3.47;;;14.20;93.00;;;;;;10398418;28;20018;-59
2022/10/12 18:58:07;;;;;;;6.22;3.45;;;14.10;93.00;;;;;;10401804;28;20044;-60
2022/10/12 19:03:10;;;;;;;8.57;3.15;;;14.10;93.00;;;;;;10392932;28;20034;-60
2022/10/12 19:08:11;;;;;;;6.50;3.35;;;14.10;93.10;;;;;;10393579;28;20529;-64
2022/10/12 19:13:12;;;;;;;6.30;3.20;;;14.10;93.10;;;;;;10393133;28;20030;-59
2022/10/12 19:18:13;;;;;;;6.80;3.20;;;14.10;93.10;;;;;;10394985;28;20406;-59
2022/10/12 19:23:14;;;;;;;7.22;3.83;;;14.00;93.10;;;;;;10394918;28;20038;-59
2022/10/12 19:28:14;;;;;;;8.48;3.75;;;14.00;93.10;;;;;;10394914;28;20064;-60
2022/10/12 19:33:15;;;;;;;8.15;3.50;;;14.00;93.10;;;;;;10395016;28;20237;-59
2022/10/12 19:38:16;;;;;;;8.35;3.35;;;14.00;93.10;;;;;;10390907;28;20026;-59
2022/10/12 19:43:16;;;;;;;7.82;3.53;;;14.00;93.20;;;;;;10391386;28;20505;-67
2022/10/12 19:48:17;;;;;;;6.28;3.28;;;13.90;93.10;;;;;;10392684;28;20029;-60
2022/10/12 19:53:18;;;;;;;11.13;3.92;;;13.90;93.10;;;;;;10394358;28;20033;-61
2022/10/12 19:58:19;;;;;;;6.65;3.20;;;13.90;93.10;;;;;;10403279;28;20482;-67
2022/10/12 20:03:19;;;;;;;7.28;3.30;;;13.90;93.10;;;;;;10403538;28;20108;-59
2022/10/12 20:08:20;;;;;;;5.50;3.75;;;13.90;93.10;;;;;;10401893;28;20477;-60
2022/10/12 20:13:21;;;;;;;11.13;3.50;;;13.90;93.10;;;;;;10399620;28;20028;-59
2022/10/12 20:18:23;;;;;;;5.65;3.20;;;13.90;93.10;;;;;;10408348;28;20108;-60
2022/10/12 20:23:23;;;;;;;6.40;3.63;;;13.90;93.10;;;;;;10402707;28;20034;-59
2022/10/12 20:28:24;;;;;;;11.70;3.65;;;13.80;93.10;;;;;;10397688;28;20430;-60
2022/10/12 20:33:25;;;;;;;8.80;3.58;;;13.80;93.10;;;;;;10402087;28;20030;-68
2022/10/12 20:38:26;;;;;;;6.68;3.75;;;13.80;93.10;;;;;;10400644;28;20498;-60
2022/10/12 20:43:27;;;;;;;8.85;3.90;;;13.80;93.10;;;;;;10402483;28;20105;-59
2022/10/12 20:48:27;;;;;;;9.02;4.38;;;13.80;93.10;;;;;;10403456;28;20441;-63
2022/10/12 20:53:28;;;;;;;5.80;3.30;;;13.70;93.10;;;;;;10402240;28;20029;-60
2022/10/12 20:58:29;;;;;;;7.50;4.03;;;13.70;93.10;;;;;;10399265;28;20444;-63
2022/10/12 21:03:29;;;;;;;9.27;4.28;;;13.70;93.10;;;;;;10400304;28;20186;-60
2022/10/12 21:08:31;;;;;;;8.27;3.70;;;13.70;93.10;;;;;;10396120;28;20065;-60
2022/10/12 21:13:34;;;;;;;6.82;3.50;;;13.70;93.10;;;;;;10400522;28;20026;-64
2022/10/12 21:18:35;;;;;;;6.90;3.78;;;13.70;93.10;;;;;;10395646;28;20029;-59
2022/10/12 21:23:36;;;;;;;7.93;3.35;;;13.70;93.10;;;;;;10402277;28;20020;-59
2022/10/12 21:28:37;;;;;;;6.90;3.78;;;13.70;93.10;;;;;;10399310;28;20437;-59
2022/10/12 21:33:38;;;;;;;9.20;3.70;;;13.70;93.10;;;;;;10401222;28;20029;-60
2022/10/12 21:38:40;;;;;;;7.53;3.55;;;13.60;93.10;;;;;;10395690;28;20018;-62
2022/10/12 21:43:42;;;;;;;9.90;3.55;;;13.60;93.10;;;;;;10398542;28;20014;-59
2022/10/12 21:48:43;;;;;;;5.68;3.20;;;13.60;93.10;;;;;;10398028;28;20099;-59
2022/10/12 21:53:43;;;;;;;8.45;4.30;;;13.60;93.10;;;;;;10399016;28;20522;-60
2022/10/12 21:58:45;;;;;;;5.40;3.50;;;13.60;93.20;;;;;;10397879;28;20033;-59
2022/10/12 22:03:48;;;;;;;6.75;3.75;;;13.60;93.10;;;;;;10392230;28;20022;-59
2022/10/12 22:08:52;;;;;;;7.60;3.58;;;13.60;93.20;;;;;;10395404;28;20041;-59
2022/10/12 22:13:58;;;;;;;7.68;4.47;;;13.60;93.20;;;;;;10393482;28;20018;-60
2022/10/12 22:19:00;;;;;;;7.43;3.72;;;13.60;93.20;;;;;;10398822;28;20014;-62
2022/10/12 22:24:01;;;;;;;8.80;3.70;;;13.50;93.20;;;;;;10392050;28;20018;-59
2022/10/12 22:29:03;;;;;;;9.35;4.03;;;13.50;93.20;;;;;;10398345;28;20057;-59
2022/10/12 22:34:05;;;;;;;6.47;3.75;;;13.50;93.20;;;;;;10402070;28;20021;-59
2022/10/12 22:39:06;;;;;;;9.40;4.38;;;13.50;93.20;;;;;;10394978;28;20025;-60
2022/10/12 22:44:06;;;;;;;8.10;3.85;;;13.50;93.20;;;;;;10397645;28;20026;-60
2022/10/12 22:49:07;;;;;;;9.32;4.07;;;13.50;93.20;;;;;;10398987;28;20041;-59
2022/10/12 22:54:08;;;;;;;11.68;4.20;;;13.50;93.20;;;;;;10401199;28;20037;-68
2022/10/12 22:59:14;;;;;;;11.57;4.43;;;13.50;93.20;;;;;;10402151;28;20143;-59
2022/10/12 23:04:14;;;;;;;7.00;3.95;;;13.50;93.20;;;;;;10399502;28;20533;-63
2022/10/12 23:09:15;;;;;;;6.93;4.18;;;13.50;93.20;;;;;;10402845;28;20082;-59
2022/10/12 23:14:16;;;;;;;10.40;4.50;;;13.40;93.20;;;;;;10399097;28;20021;-59
2022/10/12 23:19:16;;;;;;;7.20;4.60;;;13.40;93.20;;;;;;10400040;28;20094;-59
2022/10/12 23:24:17;;;;;;;6.97;3.67;;;13.30;93.20;;;;;;10397254;28;20021;-59
2022/10/12 23:29:18;;;;;;;7.50;4.30;;;13.40;93.20;;;;;;10400724;28;20037;-60
2022/10/12 23:34:18;;;;;;;7.50;3.80;;;13.40;93.20;;;;;;10400256;28;20039;-60
2022/10/12 23:39:21;;;;;;;10.32;4.10;;;13.40;93.30;;;;;;10397954;28;20037;-59
2022/10/12 23:44:21;;;;;;;8.55;4.60;;;13.40;93.30;;;;;;10399758;28;20049;-59
2022/10/12 23:49:22;;;;;;;8.88;4.50;;;13.40;93.30;;;;;;10398974;28;20179;-59
2022/10/12 23:54:23;;;;;;;8.70;4.47;;;13.40;93.30;;;;;;10400919;28;20034;-59
2022/10/12 23:59:24;;;;;;;7.93;4.75;;;13.40;93.30;;;;;;10398851;28;20038;-59
